createdAt,value
2018-10-03T00:09:04.969Z,1006.4
2018-10-03T00:19:04.950Z,1006.4
2018-10-03T00:29:04.029Z,1006.4
2018-10-03T00:39:03.855Z,1006.4
2018-10-03T00:49:04.233Z,1006.4
2018-10-03T00:59:03.925Z,1006.5
2018-10-03T01:09:03.276Z,1006.6
2018-10-03T01:19:02.940Z,1006.7
2018-10-03T01:29:02.364Z,1006.7
2018-10-03T01:39:01.997Z,1006.8
2018-10-03T01:49:01.563Z,1006.9
2018-10-03T01:59:00.985Z,1006.8
2018-10-03T02:09:00.350Z,1006.8
2018-10-03T02:18:59.890Z,1007.1
2018-10-03T02:28:59.538Z,1007.1
2018-10-03T02:38:58.964Z,1007
2018-10-03T02:48:59.168Z,1007
2018-10-03T02:58:58.509Z,1007.2
2018-10-03T03:08:58.533Z,1007.2
2018-10-03T03:18:57.607Z,1007.2
2018-10-03T03:28:57.100Z,1007.2
2018-10-03T03:38:56.525Z,1007.4
2018-10-03T03:48:55.964Z,1007.4
2018-10-03T03:58:55.683Z,1007.4
2018-10-03T04:08:55.450Z,1007.4
2018-10-03T04:18:54.539Z,1007.6
2018-10-03T04:28:54.422Z,1007.5
2018-10-03T04:38:53.842Z,1007.7
2018-10-03T04:48:53.344Z,1007.8
2018-10-03T04:58:52.397Z,1007.9
2018-10-03T05:08:52.069Z,1008
2018-10-03T05:18:51.374Z,1008
2018-10-03T05:28:50.882Z,1008.1
2018-10-03T05:38:50.168Z,1008.4
2018-10-03T05:48:50.048Z,1008.6
2018-10-03T05:58:49.372Z,1008.9
2018-10-03T06:08:48.860Z,1009
2018-10-03T06:18:48.463Z,1009.1
2018-10-03T06:28:48.090Z,1009.4
2018-10-03T06:38:47.385Z,1009.6
2018-10-03T06:48:47.858Z,1009.6
2018-10-03T06:58:47.342Z,1009.8
2018-10-03T07:18:55.349Z,1010.1
2018-10-03T07:49:11.285Z,1010.5
2018-10-03T07:59:11.070Z,1010.6
2018-10-03T08:09:10.445Z,1010.8
2018-10-03T08:19:11.152Z,1011
2018-10-03T08:29:10.978Z,1011.1
2018-10-03T08:39:13.190Z,1011.2
2018-10-03T08:49:13.151Z,1011.2
2018-10-03T08:59:13.137Z,1011.3
2018-10-03T09:09:12.882Z,1011.6
2018-10-03T09:19:12.634Z,1011.7
2018-10-03T09:29:12.521Z,1011.9
2018-10-03T09:39:12.119Z,1012
2018-10-03T09:49:11.390Z,1012.1
2018-10-03T09:59:10.694Z,1012.2
2018-10-03T10:09:10.451Z,1012.6
2018-10-03T10:19:12.707Z,1012.6
2018-10-03T10:29:15.608Z,1012.6
2018-10-03T10:39:15.280Z,1012.5
2018-10-03T10:49:14.778Z,1012.6
2018-10-03T10:59:14.351Z,1012.6
2018-10-03T11:09:13.981Z,1012.7
2018-10-03T11:19:13.685Z,1012.8
2018-10-03T11:29:24.203Z,1012.8
2018-10-03T11:39:37.761Z,1012.9
2018-10-03T11:49:38.144Z,1012.9
2018-10-03T12:09:37.755Z,1012.9
2018-10-03T12:19:37.174Z,1012.9
2018-10-03T12:29:36.659Z,1013
2018-10-03T12:39:36.299Z,1013.1
2018-10-03T12:49:35.679Z,1013.1
2018-10-03T12:59:35.189Z,1013.2
2018-10-03T13:09:34.478Z,1013.1
2018-10-03T13:19:33.560Z,1013.1
2018-10-03T13:29:33.078Z,1013.1
2018-10-03T13:39:32.444Z,1013.1
2018-10-03T13:59:34.553Z,1013.2
2018-10-03T14:09:36.863Z,1013.3
2018-10-03T14:19:36.230Z,1013.3
2018-10-03T14:29:35.679Z,1013.3
2018-10-03T14:49:34.836Z,1013.4
2018-10-03T14:59:34.308Z,1013.4
2018-10-03T15:09:36.497Z,1013.3
2018-10-03T15:19:36.133Z,1013.3
2018-10-03T15:29:36.547Z,1013.3
2018-10-03T15:39:35.932Z,1013.4
2018-10-03T15:49:35.185Z,1013.6
2018-10-03T15:59:34.812Z,1013.6
2018-10-03T16:09:34.180Z,1013.6
2018-10-03T16:19:33.214Z,1013.8
2018-10-03T16:29:32.591Z,1013.9
2018-10-03T16:39:31.718Z,1013.9
2018-10-03T16:49:30.687Z,1013.9
2018-10-03T16:59:30.387Z,1014.3
2018-10-03T17:09:29.723Z,1014.3
2018-10-03T17:19:29.252Z,1014.3
2018-10-03T17:29:31.473Z,1014.5
2018-10-03T17:39:30.742Z,1014.5
2018-10-03T17:49:30.053Z,1014.6
2018-10-03T17:59:29.181Z,1014.6
2018-10-03T18:09:28.700Z,1014.8
2018-10-03T18:19:28.057Z,1014.9
2018-10-03T18:29:27.530Z,1015
2018-10-03T18:39:27.678Z,1015
2018-10-03T18:49:26.695Z,1015.1
2018-10-03T18:59:26.290Z,1015.2
2018-10-03T19:09:31.325Z,1015.1
2018-10-03T19:19:31.225Z,1015.2
2018-10-03T19:29:30.953Z,1015.1
2018-10-03T19:39:30.269Z,1015.1
2018-10-03T19:49:29.396Z,1015.2
2018-10-03T19:59:28.872Z,1015.2
2018-10-03T20:09:28.494Z,1015.2
2018-10-03T20:19:28.211Z,1015.5
2018-10-03T20:29:27.917Z,1015.5
2018-10-03T20:49:27.398Z,1015.3
2018-10-03T20:59:27.099Z,1015.4
2018-10-03T21:09:26.454Z,1015.3
2018-10-03T21:19:25.553Z,1015.5
2018-10-03T21:29:25.332Z,1015.5
2018-10-03T21:39:25.018Z,1015.6
2018-10-03T21:49:24.376Z,1015.6
2018-10-03T21:59:24.202Z,1015.6
2018-10-03T22:09:23.533Z,1015.6
2018-10-03T22:19:22.708Z,1015.6
2018-10-03T22:29:22.584Z,1015.7
2018-10-03T22:39:21.992Z,1015.7
2018-10-03T22:49:21.111Z,1015.7
2018-10-03T22:59:20.485Z,1015.6
2018-10-03T23:09:19.696Z,1015.7
2018-10-03T23:19:19.122Z,1015.7
2018-10-03T23:29:18.573Z,1015.7
2018-10-03T23:39:18.190Z,1015.7
2018-10-03T23:49:17.308Z,1015.7
2018-10-03T23:59:17.225Z,1015.7
